TimeAKDT,TemperatureF,Dew PointF,Humidity,Sea Level PressureIn,VisibilityMPH,Wind Direction,Wind SpeedMPH,Gust SpeedMPH,PrecipitationIn,Events,Conditions,WindDirDegrees,DateUTC
12:16 AM,48.2,41.0,76,29.86,10.0,SE,26.5,35.7,N/A,,Clear,140,2012-10-03 08:16:00
12:36 AM,-9999,-9999,N/A,29.87,10.0,SSE,25.3,39.1,N/A,,Clear,150,2012-10-03 08:36:00
12:56 AM,48.2,41.0,76,29.88,10.0,SE,29.9,39.1,N/A,,Clear,140,2012-10-03 08:56:00
1:16 AM,48.2,41.0,76,29.89,10.0,SE,24.2,31.1,N/A,,Clear,140,2012-10-03 09:16:00
1:36 AM,48.2,42.8,82,29.89,10.0,SE,23.0,31.1,N/A,,Clear,140,2012-10-03 09:36:00
1:56 AM,48.2,42.8,82,29.88,10.0,SE,24.2,32.2,N/A,,Partly Cloudy,140,2012-10-03 09:56:00
2:16 AM,48.2,42.8,82,29.89,10.0,SE,24.2,34.5,N/A,,Partly Cloudy,140,2012-10-03 10:16:00
2:36 AM,-9999,-9999,N/A,29.86,10.0,SE,31.1,39.1,N/A,,Clear,140,2012-10-03 10:36:00
2:56 AM,-9999,-9999,N/A,29.85,10.0,SSE,33.4,42.6,N/A,,Clear,150,2012-10-03 10:56:00
3:16 AM,-9999,-9999,N/A,29.85,10.0,SSE,32.2,38.0,N/A,,Clear,150,2012-10-03 11:16:00
3:36 AM,-9999,-9999,N/A,29.85,10.0,SSE,29.9,38.0,N/A,,Clear,150,2012-10-03 11:36:00
3:56 AM,50.0,42.8,76,29.85,10.0,SE,26.5,40.3,N/A,,Clear,140,2012-10-03 11:56:00
4:16 AM,48.2,39.2,71,29.85,10.0,SE,19.6,31.1,N/A,,Clear,130,2012-10-03 12:16:00
4:36 AM,48.2,39.2,71,29.84,10.0,SE,19.6,26.5,N/A,,Clear,140,2012-10-03 12:36:00
4:56 AM,50.0,39.2,66,29.83,10.0,SE,19.6,26.5,N/A,,Clear,140,2012-10-03 12:56:00
5:16 AM,48.2,39.2,71,29.82,10.0,SSE,19.6,28.8,N/A,,Clear,150,2012-10-03 13:16:00
5:36 AM,50.0,39.2,66,29.81,10.0,SE,17.3,-,N/A,,Clear,140,2012-10-03 13:36:00
5:56 AM,50.0,41.0,71,29.81,10.0,ESE,25.3,33.4,N/A,,Scattered Clouds,120,2012-10-03 13:56:00
6:16 AM,50.0,41.0,71,29.80,10.0,ESE,18.4,24.2,N/A,,Scattered Clouds,120,2012-10-03 14:16:00
6:36 AM,51.8,42.8,71,29.77,10.0,ESE,23.0,33.4,N/A,,Mostly Cloudy,110,2012-10-03 14:36:00
6:56 AM,51.8,42.8,71,29.76,10.0,SE,24.2,35.7,N/A,,Overcast,130,2012-10-03 14:56:00
7:16 AM,48.2,42.8,82,29.74,10.0,ESE,18.4,28.8,N/A,,Overcast,110,2012-10-03 15:16:00
7:36 AM,48.2,39.2,71,29.74,10.0,ESE,18.4,33.4,N/A,,Overcast,120,2012-10-03 15:36:00
7:56 AM,48.2,42.8,82,29.73,10.0,SE,24.2,31.1,N/A,,Overcast,130,2012-10-03 15:56:00
8:16 AM,48.2,42.8,82,29.71,10.0,SE,25.3,33.4,N/A,,Overcast,140,2012-10-03 16:16:00
8:36 AM,48.2,41.0,76,29.70,10.0,SE,18.4,27.6,N/A,,Overcast,130,2012-10-03 16:36:00
8:56 AM,48.2,41.0,76,29.71,10.0,SE,11.5,-,N/A,,Overcast,140,2012-10-03 16:56:00
9:16 AM,50.0,41.0,71,29.70,10.0,East,19.6,26.5,N/A,,Overcast,80,2012-10-03 17:16:00
9:36 AM,51.8,41.0,67,29.68,10.0,East,21.9,36.8,N/A,,Overcast,90,2012-10-03 17:36:00
9:56 AM,51.8,42.8,71,29.67,10.0,East,19.6,31.1,N/A,,Overcast,100,2012-10-03 17:56:00
10:16 AM,51.8,42.8,71,29.65,10.0,ESE,23.0,32.2,N/A,,Overcast,110,2012-10-03 18:16:00
10:36 AM,-9999,-9999,N/A,29.64,10.0,ESE,28.8,38.0,N/A,,Overcast,120,2012-10-03 18:36:00
10:56 AM,-9999,-9999,N/A,29.65,10.0,ESE,24.2,35.7,N/A,,Mostly Cloudy,120,2012-10-03 18:56:00
11:16 AM,-9999,-9999,N/A,29.62,10.0,SE,28.8,35.7,N/A,,Mostly Cloudy,130,2012-10-03 19:16:00
11:36 AM,53.6,42.8,67,29.63,10.0,SE,25.3,32.2,N/A,,Mostly Cloudy,140,2012-10-03 19:36:00
11:56 AM,53.6,42.8,67,29.63,10.0,SSE,13.8,24.2,N/A,,Overcast,150,2012-10-03 19:56:00
12:16 PM,57.2,44.6,63,29.61,10.0,SE,17.3,20.7,N/A,,Overcast,130,2012-10-03 20:16:00
12:36 PM,57.2,46.4,67,29.55,10.0,ESE,25.3,31.1,N/A,,Mostly Cloudy,120,2012-10-03 20:36:00
12:56 PM,59.0,46.4,63,29.56,10.0,SSE,26.5,36.8,N/A,,Partly Cloudy,150,2012-10-03 20:56:00
1:16 PM,-9999,-9999,N/A,29.52,10.0,SE,36.8,44.9,N/A,,Partly Cloudy,130,2012-10-03 21:16:00
1:36 PM,-9999,-9999,N/A,29.53,10.0,SE,33.4,41.4,N/A,,Partly Cloudy,140,2012-10-03 21:36:00
1:56 PM,-9999,-9999,N/A,29.51,10.0,SE,29.9,46.0,N/A,,Partly Cloudy,130,2012-10-03 21:56:00
2:16 PM,55.4,46.4,72,29.55,10.0,SE,24.2,38.0,N/A,,Clear,130,2012-10-03 22:16:00
2:36 PM,-9999,-9999,N/A,29.51,10.0,SE,28.8,36.8,N/A,,Partly Cloudy,130,2012-10-03 22:36:00
2:56 PM,-9999,-9999,N/A,29.48,10.0,SE,34.5,40.3,N/A,,Clear,140,2012-10-03 22:56:00
3:16 PM,-9999,-9999,N/A,29.50,10.0,SE,31.1,36.8,N/A,,Clear,140,2012-10-03 23:16:00
3:36 PM,57.2,48.2,72,29.49,10.0,SE,26.5,31.1,N/A,,Clear,140,2012-10-03 23:36:00
3:56 PM,-9999,-9999,N/A,29.47,10.0,SE,31.1,38.0,N/A,,Clear,140,2012-10-03 23:56:00
4:16 PM,-9999,-9999,N/A,29.47,10.0,SE,25.3,39.1,N/A,,Partly Cloudy,130,2012-10-04 00:16:00
4:36 PM,-9999,-9999,N/A,29.44,10.0,SE,33.4,43.7,N/A,,Partly Cloudy,140,2012-10-04 00:36:00
4:56 PM,-9999,-9999,N/A,29.43,10.0,SE,33.4,44.9,N/A,,Clear,130,2012-10-04 00:56:00
5:16 PM,-9999,-9999,N/A,29.42,10.0,SE,39.1,43.7,N/A,,Clear,140,2012-10-04 01:16:00
5:36 PM,-9999,-9999,N/A,29.41,10.0,SE,39.1,46.0,N/A,,Clear,140,2012-10-04 01:36:00
5:56 PM,-9999,-9999,N/A,29.42,10.0,SE,33.4,42.6,N/A,,Clear,140,2012-10-04 01:56:00
6:16 PM,55.4,46.4,72,29.44,10.0,SSE,27.6,40.3,N/A,,Clear,150,2012-10-04 02:16:00
6:36 PM,55.4,46.4,72,29.44,10.0,SSE,31.1,42.6,N/A,,Clear,160,2012-10-04 02:36:00
6:56 PM,55.4,46.4,72,29.45,10.0,SSE,29.9,39.1,N/A,,Partly Cloudy,160,2012-10-04 02:56:00
7:16 PM,55.4,46.4,72,29.46,10.0,SSE,24.2,34.5,N/A,,Mostly Cloudy,150,2012-10-04 03:16:00
7:36 PM,-9999,-9999,N/A,29.43,10.0,SE,25.3,38.0,N/A,,Scattered Clouds,140,2012-10-04 03:36:00
7:56 PM,53.6,44.6,72,29.44,10.0,SSE,23.0,29.9,N/A,,Scattered Clouds,150,2012-10-04 03:56:00
8:16 PM,53.6,44.6,72,29.43,10.0,SSE,19.6,29.9,N/A,,Partly Cloudy,150,2012-10-04 04:16:00
8:36 PM,53.6,44.6,72,29.43,10.0,SSE,21.9,31.1,N/A,,Clear,150,2012-10-04 04:36:00
8:56 PM,51.8,46.4,82,29.43,10.0,SSE,17.3,26.5,N/A,,Mostly Cloudy,150,2012-10-04 04:56:00
9:16 PM,51.8,44.6,76,29.43,10.0,SSE,23.0,27.6,N/A,,Partly Cloudy,150,2012-10-04 05:16:00
9:36 PM,51.8,46.4,82,29.42,10.0,SE,24.2,33.4,N/A,,Clear,140,2012-10-04 05:36:00
9:56 PM,51.8,46.4,82,29.43,10.0,SSE,21.9,32.2,N/A,,Partly Cloudy,150,2012-10-04 05:56:00
10:16 PM,51.8,44.6,76,29.42,10.0,SSE,20.7,32.2,N/A,,Clear,150,2012-10-04 06:16:00
10:36 PM,51.8,44.6,76,29.42,10.0,SSE,23.0,29.9,N/A,,Partly Cloudy,150,2012-10-04 06:36:00
10:56 PM,51.8,44.6,76,29.41,10.0,SSE,27.6,38.0,N/A,,Partly Cloudy,150,2012-10-04 06:56:00
11:16 PM,51.8,44.6,76,29.42,10.0,SSE,28.8,38.0,N/A,,Clear,150,2012-10-04 07:16:00
11:36 PM,51.8,44.6,76,29.45,10.0,SSE,21.9,34.5,N/A,,Clear,160,2012-10-04 07:36:00
11:56 PM,51.8,44.6,76,29.47,10.0,SE,18.4,24.2,N/A,,Mostly Cloudy,140,2012-10-04 07:56:00